Terminal Aerodrome Forecast
Issued by NWS

Home | Current Version | Previous Version | Text Only | Print | Product List | Glossary On
Versions: 1 2 3 4 5 6 7 8 9 10 11 12 13 14 15 16 17 18 19 20 21 22 23 24 25
000
FTUS44 KOUN 050520
TAFLAW
TAF
KLAW 050520Z 0506/0606 14012KT P6SM BKN060 OVC250
      TEMPO 0511/0515 4SM -TSRA BR BKN040CB
     FM051500 15016G24KT P6SM BKN030
      TEMPO 0520/0524 4SM -TSRA BR BKN030CB
     FM060000 13015KT P6SM BKN030 PROB30 0600/0606 3SM -TSRA BR
      OVC020CB=

USA.gov is the U.S. government's official web portal to all federal, state and local government web resources and services.